Time;durP1;ratioP1;P1;durP2;ratioP2;P2;SDS_P1;SDS_P2;PMS_P1;PMS_P2;Temp;Humidity;BMP_temperature;BMP_pressure;BME280_temperature;BME280_humidity;BME280_pressure;Samples;Min_cycle;Max_cycle;Signal;HPM_P1;HPM_P2
2023/10/06 00:01:33;;;;;;;1.25;1.15;;;13.80;99.90;;;;;;5041263;28;20063;-65
2023/10/06 00:04:06;;;;;;;0.08;0.08;;;13.80;99.90;;;;;;5054676;28;20037;-66
2023/10/06 00:06:38;;;;;;;0.20;0.20;;;13.80;99.90;;;;;;5058027;28;20419;-66
2023/10/06 00:09:06;;;;;;;0.10;0.10;;;13.80;99.90;;;;;;5051906;28;20052;-66
2023/10/06 00:11:32;;;;;;;1.83;0.90;;;13.80;99.90;;;;;;5049612;28;20032;-66
2023/10/06 00:14:07;;;;;;;0.43;0.30;;;13.80;99.90;;;;;;5059282;28;20036;-65
2023/10/06 00:16:39;;;;;;;1.00;0.60;;;13.70;99.90;;;;;;5058664;28;20479;-66
2023/10/06 00:19:31;;;;;;;0.90;0.50;;;13.70;99.90;;;;;;5045294;28;20044;-66
2023/10/06 00:22:26;;;;;;;0.28;0.28;;;13.70;99.90;;;;;;5048315;28;20044;-66
2023/10/06 00:24:50;;;;;;;1.80;1.65;;;13.70;99.90;;;;;;5057889;28;20048;-66
2023/10/06 00:27:24;;;;;;;1.95;0.43;;;13.70;99.90;;;;;;5046373;28;20048;-66
2023/10/06 00:29:56;;;;;;;0.45;0.45;;;13.70;99.90;;;;;;5062094;28;20025;-66
2023/10/06 00:32:28;;;;;;;1.10;0.47;;;13.70;99.90;;;;;;5063100;28;20380;-66
2023/10/06 00:35:17;;;;;;;5.43;0.38;;;13.70;99.90;;;;;;5067012;28;20048;-66
2023/10/06 00:37:43;;;;;;;0.40;0.30;;;13.70;99.90;;;;;;5056916;28;20080;-66
2023/10/06 00:40:19;;;;;;;0.40;0.38;;;13.70;99.90;;;;;;5062907;28;20047;-65
2023/10/06 00:43:00;;;;;;;1.10;0.63;;;13.70;99.90;;;;;;5063439;28;20040;-65
2023/10/06 00:45:26;;;;;;;0.50;0.38;;;13.70;99.90;;;;;;5040801;28;20402;-66
2023/10/06 00:47:55;;;;;;;0.63;0.63;;;13.70;99.90;;;;;;5058326;28;20029;-66
2023/10/06 00:50:23;;;;;;;1.85;1.75;;;13.70;99.90;;;;;;5057891;28;20029;-66
2023/10/06 00:52:50;;;;;;;0.73;0.50;;;13.70;99.90;;;;;;5040754;28;20048;-65
2023/10/06 00:55:17;;;;;;;0.20;0.20;;;13.70;99.90;;;;;;5063737;28;20117;-65
2023/10/06 00:57:50;;;;;;;0.68;0.43;;;13.70;99.90;;;;;;5067538;28;20045;-65
2023/10/06 01:00:22;;;;;;;2.92;1.85;;;13.70;99.90;;;;;;5058111;28;20052;-65
2023/10/06 01:02:49;;;;;;;0.60;0.60;;;13.70;99.90;;;;;;5035473;28;20048;-66
2023/10/06 01:05:16;;;;;;;1.27;0.95;;;13.70;99.90;;;;;;5061512;28;20117;-66
2023/10/06 01:07:47;;;;;;;0.30;0.30;;;13.70;99.90;;;;;;5060109;28;20040;-66
2023/10/06 01:10:27;;;;;;;2.33;0.80;;;13.70;99.90;;;;;;5062786;28;20063;-65
2023/10/06 01:12:54;;;;;;;0.70;0.70;;;13.70;99.90;;;;;;5060067;28;20131;-66
2023/10/06 01:15:21;;;;;;;0.65;0.55;;;13.70;99.90;;;;;;5042898;28;20051;-66
2023/10/06 01:17:47;;;;;;;0.85;0.85;;;13.70;99.90;;;;;;5060112;28;20044;-66
2023/10/06 01:22:57;;;;;;;4.30;2.03;;;13.70;99.90;;;;;;5059146;28;20036;-66
2023/10/06 01:25:24;;;;;;;0.40;0.40;;;13.70;99.90;;;;;;5060873;28;20080;-65
2023/10/06 01:27:50;;;;;;;2.75;0.95;;;13.70;99.90;;;;;;5039624;28;20124;-66
2023/10/06 01:30:19;;;;;;;0.50;0.50;;;13.70;99.90;;;;;;5056415;28;20079;-66
2023/10/06 01:32:51;;;;;;;1.35;0.80;;;13.70;99.90;;;;;;5054924;28;21192;-65
2023/10/06 01:35:18;;;;;;;0.80;0.45;;;13.70;99.90;;;;;;5039079;28;20472;-66
2023/10/06 01:37:45;;;;;;;0.77;0.52;;;13.70;99.90;;;;;;5053963;28;20044;-65
2023/10/06 01:42:52;;;;;;;0.35;0.30;;;13.80;99.90;;;;;;5056256;28;20059;-66
2023/10/06 01:45:21;;;;;;;0.65;0.28;;;13.70;99.90;;;;;;5060845;28;20165;-66
2023/10/06 01:48:01;;;;;;;3.63;1.75;;;13.70;99.90;;;;;;5059142;28;20072;-66
2023/10/06 01:50:27;;;;;;;1.08;0.55;;;13.70;99.90;;;;;;5060928;28;20094;-65
2023/10/06 01:52:56;;;;;;;1.60;0.55;;;13.70;99.90;;;;;;5062552;28;20399;-66
2023/10/06 01:55:24;;;;;;;1.25;0.20;;;13.70;99.90;;;;;;5059557;28;20051;-66
2023/10/06 01:57:50;;;;;;;1.02;0.75;;;13.70;99.90;;;;;;5054750;28;20089;-67
2023/10/06 02:00:22;;;;;;;1.25;0.75;;;13.80;99.90;;;;;;5045786;28;20044;-66
2023/10/06 02:02:50;;;;;;;1.15;0.35;;;13.80;99.90;;;;;;5053888;28;20079;-65
2023/10/06 02:05:16;;;;;;;0.35;0.35;;;13.80;99.90;;;;;;5059130;28;20525;-66
2023/10/06 02:07:44;;;;;;;1.85;0.68;;;13.80;99.90;;;;;;5056915;28;20049;-66
2023/10/06 02:10:15;;;;;;;0.75;0.40;;;13.80;99.90;;;;;;5034781;28;20056;-66
2023/10/06 02:12:45;;;;;;;0.70;0.43;;;13.80;99.90;;;;;;5050136;28;20044;-66
2023/10/06 02:15:10;;;;;;;0.55;0.40;;;13.80;99.90;;;;;;5057850;28;20079;-65
2023/10/06 02:17:40;;;;;;;3.50;0.85;;;13.80;99.90;;;;;;5055877;28;20072;-66
2023/10/06 02:20:13;;;;;;;2.47;0.75;;;13.80;99.90;;;;;;5039884;28;20048;-66
2023/10/06 02:22:39;;;;;;;4.13;0.80;;;13.80;99.90;;;;;;5038913;28;20048;-66
2023/10/06 02:25:13;;;;;;;1.13;0.57;;;13.80;99.90;;;;;;5058938;28;20033;-66
2023/10/06 02:27:47;;;;;;;0.75;0.45;;;13.80;99.90;;;;;;5039758;28;20048;-66
2023/10/06 02:30:15;;;;;;;1.50;0.70;;;13.80;99.90;;;;;;5040510;28;20043;-66
2023/10/06 02:32:43;;;;;;;0.57;0.57;;;13.70;99.90;;;;;;5055986;28;21221;-66
2023/10/06 02:35:09;;;;;;;3.50;0.77;;;13.80;99.90;;;;;;5058929;28;20045;-65
2023/10/06 02:37:34;;;;;;;0.85;0.75;;;13.80;99.90;;;;;;5058607;28;20368;-66
2023/10/06 02:40:00;;;;;;;1.65;1.15;;;13.80;99.90;;;;;;5061917;28;20028;-65
2023/10/06 02:42:25;;;;;;;0.90;0.57;;;13.80;99.90;;;;;;5051751;28;20731;-65
2023/10/06 02:44:51;;;;;;;1.85;1.58;;;13.80;99.90;;;;;;5052846;28;20633;-66
2023/10/06 02:47:18;;;;;;;1.08;0.88;;;13.70;99.90;;;;;;5036804;28;20063;-66
2023/10/06 02:49:48;;;;;;;0.35;0.35;;;13.80;99.90;;;;;;5057802;28;20032;-65
2023/10/06 02:52:29;;;;;;;0.55;0.55;;;13.80;99.90;;;;;;5054853;28;20078;-65
2023/10/06 02:55:12;;;;;;;0.35;0.35;;;13.80;99.90;;;;;;5067126;28;20479;-65
2023/10/06 02:57:41;;;;;;;2.67;0.75;;;13.70;99.90;;;;;;5056648;28;20039;-66
2023/10/06 03:03:02;;;;;;;0.30;0.30;;;13.70;99.90;;;;;;5051350;28;21565;-66
2023/10/06 03:05:38;;;;;;;0.73;0.60;;;13.70;99.90;;;;;;5058089;28;20048;-66
2023/10/06 03:08:09;;;;;;;1.27;0.50;;;13.70;99.90;;;;;;5057314;28;20115;-66
2023/10/06 03:10:42;;;;;;;3.60;0.87;;;13.60;99.90;;;;;;5040676;28;20451;-66
2023/10/06 03:13:14;;;;;;;0.30;0.30;;;13.60;99.90;;;;;;5053903;28;20290;-66
2023/10/06 03:15:46;;;;;;;2.03;1.17;;;13.60;99.90;;;;;;5055854;28;20050;-66
2023/10/06 03:18:13;;;;;;;0.25;0.25;;;13.60;99.90;;;;;;5066459;28;20056;-65
2023/10/06 03:20:48;;;;;;;3.05;2.20;;;13.50;99.90;;;;;;5061000;28;20060;-66
2023/10/06 03:23:36;;;;;;;1.27;0.30;;;13.50;99.90;;;;;;5060387;28;20037;-65
2023/10/06 03:26:11;;;;;;;0.82;0.82;;;13.50;99.90;;;;;;5056736;28;20064;-65
2023/10/06 03:28:37;;;;;;;0.98;0.32;;;13.40;99.90;;;;;;5041932;28;20463;-66
2023/10/06 03:33:45;;;;;;;0.37;0.20;;;13.40;99.90;;;;;;5057971;28;20044;-66
2023/10/06 03:36:11;;;;;;;0.43;0.43;;;13.40;99.90;;;;;;5060716;28;20028;-65
2023/10/06 03:38:42;;;;;;;0.25;0.20;;;13.40;99.90;;;;;;5039561;28;20047;-66
2023/10/06 03:41:24;;;;;;;2.67;0.80;;;13.40;99.90;;;;;;5054045;28;20040;-65
2023/10/06 03:43:57;;;;;;;1.90;0.73;;;13.40;99.90;;;;;;5069788;28;20178;-65
2023/10/06 03:46:24;;;;;;;2.00;0.52;;;13.40;99.90;;;;;;5058789;28;20037;-66
2023/10/06 03:48:50;;;;;;;1.02;0.80;;;13.40;99.90;;;;;;5056428;28;20496;-66
2023/10/06 03:51:20;;;;;;;2.50;1.02;;;13.40;99.90;;;;;;5059610;28;20086;-65
2023/10/06 03:53:47;;;;;;;0.85;0.60;;;13.40;99.90;;;;;;5057680;28;20441;-65
2023/10/06 03:56:13;;;;;;;1.42;0.60;;;13.40;99.90;;;;;;5057336;28;20055;-65
2023/10/06 03:58:39;;;;;;;0.45;0.28;;;13.30;99.90;;;;;;5054186;28;20041;-65
2023/10/06 04:01:09;;;;;;;0.35;0.35;;;13.30;99.90;;;;;;5041013;28;20047;-66
2023/10/06 04:03:35;;;;;;;0.55;0.35;;;13.30;99.90;;;;;;5066730;28;20029;-66
2023/10/06 04:06:04;;;;;;;1.45;1.08;;;13.30;99.90;;;;;;5054132;28;20443;-65
2023/10/06 04:08:29;;;;;;;0.40;0.40;;;13.30;99.90;;;;;;5039769;28;20044;-66
2023/10/06 04:10:58;;;;;;;1.75;0.63;;;13.30;99.90;;;;;;5047351;28;20036;-65
2023/10/06 04:13:27;;;;;;;6.13;1.23;;;13.30;99.90;;;;;;5049807;28;20055;-65
2023/10/06 04:15:54;;;;;;;1.55;0.20;;;13.30;99.90;;;;;;5054268;28;20056;-65
2023/10/06 04:18:22;;;;;;;0.57;0.57;;;13.30;99.90;;;;;;5066854;28;20123;-65
2023/10/06 04:20:49;;;;;;;0.43;0.43;;;13.30;99.90;;;;;;5072263;28;20066;-65
2023/10/06 04:23:18;;;;;;;2.50;1.65;;;13.30;99.90;;;;;;5066047;28;20072;-65
2023/10/06 04:25:45;;;;;;;0.25;0.25;;;13.30;99.90;;;;;;5063319;28;20040;-65
2023/10/06 04:28:16;;;;;;;3.40;0.98;;;13.30;99.90;;;;;;5056657;28;20059;-66
2023/10/06 04:30:44;;;;;;;4.45;2.45;;;13.30;99.90;;;;;;5048298;28;20051;-66
2023/10/06 04:33:11;;;;;;;0.55;0.55;;;13.30;99.90;;;;;;5067296;28;20408;-64
2023/10/06 04:35:52;;;;;;;0.60;0.60;;;13.30;99.90;;;;;;5048035;28;20501;-65
2023/10/06 04:38:19;;;;;;;0.38;0.38;;;13.30;99.90;;;;;;5067630;28;20078;-66
2023/10/06 04:40:46;;;;;;;0.20;0.20;;;13.30;99.90;;;;;;5067983;28;20047;-65
2023/10/06 04:43:13;;;;;;;0.45;0.35;;;13.30;99.90;;;;;;5069209;28;20068;-65
2023/10/06 04:45:39;;;;;;;0.50;0.50;;;13.30;99.90;;;;;;5053310;28;20407;-65
2023/10/06 04:48:07;;;;;;;1.67;0.45;;;13.30;99.90;;;;;;5064548;28;20036;-64
2023/10/06 04:50:34;;;;;;;0.28;0.22;;;13.20;99.90;;;;;;5042368;28;20044;-64
2023/10/06 04:53:00;;;;;;;1.27;0.75;;;13.20;99.90;;;;;;5068324;28;20049;-65
2023/10/06 04:55:26;;;;;;;2.55;1.02;;;13.20;99.90;;;;;;5069718;28;20040;-65
2023/10/06 04:57:52;;;;;;;0.43;0.30;;;13.30;99.90;;;;;;5060062;28;20041;-65
2023/10/06 05:00:21;;;;;;;3.15;0.70;;;13.30;99.90;;;;;;5068439;28;20101;-66
2023/10/06 05:02:48;;;;;;;0.20;0.20;;;13.30;99.90;;;;;;5065004;28;20043;-65
2023/10/06 05:05:14;;;;;;;4.22;0.90;;;13.30;99.90;;;;;;5070163;28;20040;-65
2023/10/06 05:07:40;;;;;;;4.03;0.63;;;13.30;99.90;;;;;;5063056;28;20376;-66
2023/10/06 05:10:10;;;;;;;1.58;0.57;;;13.30;99.90;;;;;;5066526;28;20044;-65
2023/10/06 05:12:37;;;;;;;0.75;0.73;;;13.30;99.90;;;;;;5065946;28;20598;-65
2023/10/06 05:15:07;;;;;;;2.10;1.30;;;13.40;99.90;;;;;;5045114;28;20072;-65
2023/10/06 05:17:36;;;;;;;1.20;0.47;;;13.40;99.90;;;;;;5041611;28;20041;-64
2023/10/06 05:20:03;;;;;;;0.28;0.28;;;13.40;99.90;;;;;;5056666;28;20475;-65
2023/10/06 05:22:29;;;;;;;0.50;0.50;;;13.50;99.90;;;;;;5065054;28;20037;-65
2023/10/06 05:24:55;;;;;;;0.43;0.43;;;13.50;99.90;;;;;;5067955;28;20040;-65
2023/10/06 05:27:22;;;;;;;0.93;0.52;;;13.40;99.90;;;;;;5035712;28;20089;-66
2023/10/06 05:29:50;;;;;;;1.80;1.27;;;13.50;99.90;;;;;;5067199;28;20047;-65
2023/10/06 05:32:16;;;;;;;0.30;0.28;;;13.50;99.90;;;;;;5067361;28;20048;-65
2023/10/06 05:34:42;;;;;;;0.15;0.15;;;13.50;99.90;;;;;;5049430;28;20543;-65
2023/10/06 05:37:10;;;;;;;0.63;0.52;;;13.50;99.90;;;;;;5067412;28;20062;-65
2023/10/06 05:39:36;;;;;;;0.65;0.65;;;13.50;99.90;;;;;;5042867;28;20036;-65
2023/10/06 05:42:02;;;;;;;1.02;0.60;;;13.50;99.90;;;;;;5063648;28;20094;-65
2023/10/06 05:44:28;;;;;;;0.95;0.75;;;13.50;99.90;;;;;;5045913;28;20486;-65
2023/10/06 05:46:54;;;;;;;0.20;0.20;;;13.50;99.90;;;;;;5052339;28;20456;-65
2023/10/06 05:49:21;;;;;;;3.63;0.93;;;13.60;99.90;;;;;;5064691;28;20119;-64
2023/10/06 05:51:49;;;;;;;1.55;1.33;;;13.60;99.90;;;;;;5067423;28;20424;-65
2023/10/06 05:54:26;;;;;;;0.93;0.82;;;13.60;99.90;;;;;;5051349;28;20123;-64
2023/10/06 05:56:53;;;;;;;1.30;1.23;;;13.60;99.90;;;;;;5033312;28;20496;-64
2023/10/06 05:59:22;;;;;;;0.90;0.68;;;13.70;99.90;;;;;;5058991;28;20565;-65
2023/10/06 06:01:56;;;;;;;1.75;1.38;;;13.70;99.90;;;;;;5072014;28;20123;-65
2023/10/06 06:04:27;;;;;;;0.63;0.50;;;13.70;99.90;;;;;;5061318;28;20472;-65
2023/10/06 06:07:03;;;;;;;0.70;0.40;;;13.80;99.90;;;;;;5069141;28;20028;-65
2023/10/06 06:09:30;;;;;;;2.47;0.90;;;13.80;99.90;;;;;;5047448;28;20287;-65
2023/10/06 06:11:58;;;;;;;1.55;0.40;;;13.80;99.90;;;;;;5059313;28;20123;-65
2023/10/06 06:14:24;;;;;;;1.42;1.25;;;13.80;99.90;;;;;;5043292;28;20044;-66
2023/10/06 06:16:50;;;;;;;0.70;0.70;;;13.80;99.90;;;;;;5039677;28;20411;-65
2023/10/06 06:19:16;;;;;;;1.15;1.00;;;13.80;99.90;;;;;;5055157;28;20047;-64
2023/10/06 06:21:42;;;;;;;1.05;0.90;;;13.90;99.90;;;;;;5059829;28;20398;-66
2023/10/06 06:24:08;;;;;;;1.13;1.00;;;13.90;99.90;;;;;;5059844;28;20041;-65
2023/10/06 06:26:37;;;;;;;4.28;1.27;;;13.80;99.90;;;;;;5058693;28;20059;-64
2023/10/06 06:29:08;;;;;;;0.43;0.43;;;13.90;99.90;;;;;;5057113;28;20044;-66
2023/10/06 06:31:34;;;;;;;1.70;0.70;;;13.90;99.90;;;;;;5057212;28;20054;-63
2023/10/06 06:34:06;;;;;;;0.47;0.47;;;13.90;99.90;;;;;;5057446;28;20476;-64
2023/10/06 06:36:32;;;;;;;4.25;0.77;;;13.90;99.90;;;;;;5066268;28;20106;-66
2023/10/06 06:38:58;;;;;;;2.28;0.60;;;14.00;99.90;;;;;;5061348;28;20060;-65
2023/10/06 06:41:27;;;;;;;0.50;0.50;;;13.90;99.90;;;;;;5072096;28;20078;-65
2023/10/06 06:43:58;;;;;;;0.32;0.32;;;14.00;99.90;;;;;;5063191;28;20087;-65
2023/10/06 06:46:29;;;;;;;0.52;0.52;;;14.00;99.90;;;;;;5062679;28;20032;-65
2023/10/06 06:48:55;;;;;;;0.57;0.57;;;14.00;99.90;;;;;;5036988;28;20040;-65
2023/10/06 06:51:27;;;;;;;0.40;0.40;;;14.00;99.90;;;;;;5059392;28;20060;-66
2023/10/06 06:53:56;;;;;;;0.30;0.30;;;14.00;99.90;;;;;;5052813;28;20098;-64
2023/10/06 06:56:24;;;;;;;5.07;1.17;;;14.00;99.90;;;;;;5064021;28;20462;-66
2023/10/06 06:58:51;;;;;;;0.63;0.43;;;14.00;99.90;;;;;;5046327;28;20350;-66
2023/10/06 07:01:17;;;;;;;3.00;1.30;;;14.10;99.90;;;;;;5039775;28;20472;-64
2023/10/06 07:03:43;;;;;;;1.33;1.23;;;14.10;99.90;;;;;;5054410;28;20044;-65
2023/10/06 07:06:16;;;;;;;1.20;1.10;;;14.00;99.90;;;;;;5059438;28;20403;-65
2023/10/06 07:08:46;;;;;;;2.45;0.85;;;14.00;99.90;;;;;;5040583;28;20071;-64
2023/10/06 07:11:13;;;;;;;0.47;0.22;;;14.10;99.90;;;;;;5062032;28;20090;-63
2023/10/06 07:13:39;;;;;;;25.38;1.58;;;14.00;99.90;;;;;;5062603;28;20037;-64
2023/10/06 07:16:06;;;;;;;0.22;0.22;;;14.00;99.90;;;;;;5061587;28;20037;-64
2023/10/06 07:18:35;;;;;;;0.57;0.52;;;14.10;99.90;;;;;;5056594;28;20032;-66
2023/10/06 07:21:08;;;;;;;0.95;0.70;;;14.00;99.90;;;;;;5047479;28;20032;-64
2023/10/06 07:23:34;;;;;;;0.28;0.28;;;14.10;99.90;;;;;;5066976;28;20148;-64
2023/10/06 07:26:00;;;;;;;1.00;0.70;;;14.10;99.90;;;;;;5067342;28;20048;-65
2023/10/06 07:28:27;;;;;;;0.38;0.38;;;14.10;99.90;;;;;;5065034;28;20123;-65
2023/10/06 07:30:52;;;;;;;1.60;0.55;;;14.10;99.90;;;;;;5067370;28;20105;-65
2023/10/06 07:33:18;;;;;;;1.95;1.10;;;14.20;99.90;;;;;;5056581;28;20032;-64
2023/10/06 07:35:45;;;;;;;3.80;1.27;;;14.30;99.90;;;;;;5060504;28;20052;-64
2023/10/06 07:38:12;;;;;;;0.47;0.47;;;14.30;99.90;;;;;;5057832;28;20044;-65
2023/10/06 07:40:38;;;;;;;0.95;0.75;;;14.30;99.90;;;;;;5066224;28;20043;-65
2023/10/06 07:43:05;;;;;;;2.63;0.57;;;14.40;99.90;;;;;;5068962;28;20033;-65
2023/10/06 07:45:31;;;;;;;0.80;0.55;;;14.50;99.90;;;;;;5074117;28;20443;-65
2023/10/06 07:47:58;;;;;;;1.17;0.82;;;14.60;99.90;;;;;;5068445;28;20469;-63
2023/10/06 07:50:26;;;;;;;2.38;1.27;;;14.60;99.90;;;;;;5072814;28;20502;-64
2023/10/06 07:52:55;;;;;;;2.55;1.65;;;14.70;99.90;;;;;;5062640;28;20388;-64
2023/10/06 07:55:22;;;;;;;2.30;1.23;;;14.70;99.90;;;;;;5067288;28;20063;-64
2023/10/06 07:57:48;;;;;;;0.70;0.70;;;14.60;99.90;;;;;;5047359;28;20045;-64
2023/10/06 08:00:27;;;;;;;0.65;0.65;;;14.60;99.90;;;;;;5056791;28;20465;-64
2023/10/06 08:02:53;;;;;;;6.68;1.58;;;14.60;99.90;;;;;;5039854;28;20052;-65
2023/10/06 08:05:19;;;;;;;1.65;0.70;;;14.60;99.90;;;;;;5053732;28;20048;-65
2023/10/06 08:07:45;;;;;;;2.67;1.58;;;14.50;99.90;;;;;;5062698;28;20431;-64
2023/10/06 08:10:15;;;;;;;1.63;1.13;;;14.60;99.90;;;;;;5059590;28;20179;-64
2023/10/06 08:12:44;;;;;;;5.18;0.82;;;14.60;99.90;;;;;;5053026;28;20385;-64
2023/10/06 08:15:21;;;;;;;0.75;0.65;;;14.70;99.90;;;;;;5055252;28;20094;-65
2023/10/06 08:17:53;;;;;;;4.75;2.15;;;14.70;99.90;;;;;;5062744;28;20042;-63
2023/10/06 08:20:20;;;;;;;0.30;0.28;;;14.70;99.90;;;;;;5059285;28;20119;-65
2023/10/06 08:22:47;;;;;;;1.20;0.60;;;14.70;99.90;;;;;;5044140;28;20080;-64
2023/10/06 08:25:16;;;;;;;1.98;1.17;;;14.70;99.90;;;;;;5041708;28;20037;-65
2023/10/06 08:27:43;;;;;;;1.20;1.10;;;14.70;99.90;;;;;;5065313;28;20557;-64
2023/10/06 08:30:16;;;;;;;1.40;1.30;;;14.70;99.90;;;;;;5063605;28;20161;-65
2023/10/06 08:32:51;;;;;;;1.02;0.73;;;14.80;99.90;;;;;;5061026;28;20082;-65
2023/10/06 08:35:17;;;;;;;0.98;0.85;;;14.80;99.90;;;;;;5062803;28;20418;-65
2023/10/06 08:37:44;;;;;;;0.80;0.65;;;14.80;99.90;;;;;;5068710;28;20040;-65
2023/10/06 08:40:17;;;;;;;4.38;1.02;;;14.80;99.90;;;;;;5068653;28;20080;-65
2023/10/06 08:42:51;;;;;;;1.08;1.00;;;14.90;99.90;;;;;;5046754;28;20128;-64
2023/10/06 08:45:21;;;;;;;0.40;0.30;;;14.90;99.90;;;;;;5052173;28;20056;-66
2023/10/06 08:47:48;;;;;;;1.10;0.85;;;14.90;99.90;;;;;;5060149;28;20029;-65
2023/10/06 08:50:20;;;;;;;0.85;0.75;;;14.90;99.90;;;;;;5062603;28;20041;-65
2023/10/06 08:52:50;;;;;;;1.90;1.70;;;15.00;99.90;;;;;;5057837;28;20484;-65
2023/10/06 08:55:17;;;;;;;3.42;1.45;;;15.00;99.90;;;;;;5056677;28;20064;-65
2023/10/06 08:57:46;;;;;;;8.75;0.95;;;15.00;99.90;;;;;;5063037;28;20039;-64
2023/10/06 09:00:17;;;;;;;14.30;0.93;;;15.00;99.90;;;;;;5049894;28;20479;-65
2023/10/06 09:02:45;;;;;;;1.98;1.38;;;15.00;99.90;;;;;;5051341;28;20491;-65
2023/10/06 09:05:12;;;;;;;2.22;1.58;;;15.10;99.90;;;;;;5071399;28;20044;-65
2023/10/06 09:07:38;;;;;;;1.38;0.73;;;15.20;99.90;;;;;;5069222;28;20043;-64
2023/10/06 09:10:19;;;;;;;2.20;0.77;;;15.20;99.90;;;;;;5053772;28;20044;-65
2023/10/06 09:12:57;;;;;;;0.50;0.50;;;15.20;99.90;;;;;;5053547;28;20059;-65
2023/10/06 09:15:22;;;;;;;1.60;1.50;;;15.30;99.90;;;;;;5062437;28;20040;-65
2023/10/06 09:17:48;;;;;;;1.13;0.95;;;15.30;99.90;;;;;;5067225;28;21159;-65
2023/10/06 09:20:13;;;;;;;0.82;0.82;;;15.30;99.90;;;;;;5067300;28;20288;-65
2023/10/06 09:22:49;;;;;;;1.83;1.10;;;15.30;99.90;;;;;;5055060;28;20136;-65
2023/10/06 09:25:14;;;;;;;2.30;1.02;;;15.40;99.90;;;;;;5061182;28;20045;-65
2023/10/06 09:27:41;;;;;;;0.82;0.70;;;15.40;99.90;;;;;;5060238;28;20387;-65
2023/10/06 09:30:07;;;;;;;0.60;0.60;;;15.40;99.90;;;;;;5065813;28;20495;-65
2023/10/06 09:32:32;;;;;;;3.63;0.75;;;15.50;99.90;;;;;;5055027;28;21017;-66
2023/10/06 09:34:58;;;;;;;1.45;1.05;;;15.70;99.90;;;;;;5061684;28;20064;-65
2023/10/06 09:37:27;;;;;;;1.25;1.05;;;15.70;99.90;;;;;;5053074;28;20118;-65
2023/10/06 09:40:10;;;;;;;0.95;0.85;;;15.80;99.90;;;;;;5058094;28;20049;-65
2023/10/06 09:42:36;;;;;;;0.50;0.50;;;15.90;99.90;;;;;;5063262;28;20495;-66
2023/10/06 09:45:07;;;;;;;1.60;1.25;;;16.00;99.90;;;;;;5043999;28;20037;-65
2023/10/06 09:47:42;;;;;;;2.13;0.55;;;16.10;99.90;;;;;;5070428;28;20050;-66
2023/10/06 09:50:09;;;;;;;0.45;0.45;;;16.20;99.90;;;;;;5053410;28;20059;-65
2023/10/06 09:52:42;;;;;;;1.33;1.13;;;16.30;99.90;;;;;;5069086;28;20058;-66
2023/10/06 09:55:08;;;;;;;0.85;0.32;;;16.50;99.90;;;;;;5057829;28;20383;-65
2023/10/06 09:57:35;;;;;;;0.98;0.40;;;16.80;99.90;;;;;;5043578;28;20033;-66
2023/10/06 10:00:01;;;;;;;1.45;0.93;;;17.00;99.90;;;;;;5041206;28;20174;-66
2023/10/06 10:02:29;;;;;;;1.17;0.75;;;17.00;99.90;;;;;;5061472;28;20036;-65
2023/10/06 10:04:59;;;;;;;2.70;0.90;;;17.10;99.90;;;;;;5061843;28;20032;-64
2023/10/06 10:07:28;;;;;;;0.82;0.82;;;17.10;99.90;;;;;;5059411;28;20036;-66
2023/10/06 10:09:55;;;;;;;0.85;0.65;;;17.10;99.90;;;;;;5039674;28;20051;-65
2023/10/06 10:12:54;;;;;;;1.02;0.65;;;17.10;99.90;;;;;;5060650;28;20055;-66
2023/10/06 10:15:37;;;;;;;2.28;0.98;;;17.10;99.90;;;;;;5057813;28;20045;-65
2023/10/06 10:18:17;;;;;;;0.75;0.75;;;17.00;99.90;;;;;;5039057;28;20040;-66
2023/10/06 10:20:46;;;;;;;0.65;0.65;;;16.90;99.90;;;;;;5057500;28;20029;-65
2023/10/06 10:23:16;;;;;;;0.68;0.40;;;16.90;99.90;;;;;;5053533;28;20068;-66
2023/10/06 10:25:42;;;;;;;1.60;0.93;;;16.90;99.90;;;;;;5059436;28;20040;-66
2023/10/06 10:28:16;;;;;;;0.70;0.50;;;17.00;99.90;;;;;;5039503;28;20043;-65
2023/10/06 10:30:53;;;;;;;0.57;0.55;;;17.10;99.90;;;;;;5057507;28;20160;-66
2023/10/06 10:33:34;;;;;;;6.60;1.60;;;17.10;99.90;;;;;;5035372;28;20051;-66
2023/10/06 10:36:12;;;;;;;2.33;0.57;;;17.30;99.90;;;;;;5055123;28;20558;-66
2023/10/06 10:38:38;;;;;;;0.40;0.40;;;17.50;99.90;;;;;;5039153;28;20049;-65
2023/10/06 10:41:08;;;;;;;8.98;0.52;;;17.70;99.90;;;;;;5067026;28;20036;-67
2023/10/06 10:43:48;;;;;;;1.17;1.08;;;17.80;99.90;;;;;;5054361;28;20033;-65
2023/10/06 10:46:30;;;;;;;2.88;0.80;;;17.70;99.90;;;;;;5059676;28;20379;-67
2023/10/06 10:48:58;;;;;;;1.02;0.57;;;17.60;99.90;;;;;;5056824;28;20128;-67
2023/10/06 10:51:24;;;;;;;3.33;1.73;;;17.40;99.90;;;;;;5064006;28;20032;-66
2023/10/06 10:53:52;;;;;;;0.95;0.65;;;17.40;99.90;;;;;;5060307;28;20116;-65
2023/10/06 10:56:34;;;;;;;3.05;0.40;;;17.30;99.90;;;;;;5058361;28;20071;-65
2023/10/06 10:59:00;;;;;;;1.33;1.23;;;17.20;99.90;;;;;;5038801;28;20045;-65
2023/10/06 11:01:37;;;;;;;0.43;0.43;;;17.10;99.90;;;;;;5064440;28;20721;-69
2023/10/06 11:04:18;;;;;;;0.35;0.35;;;17.00;99.90;;;;;;5043503;28;20055;-67
2023/10/06 11:06:45;;;;;;;1.58;1.15;;;17.00;99.90;;;;;;5032911;28;20510;-71
2023/10/06 11:09:25;;;;;;;1.65;0.55;;;17.00;99.90;;;;;;5035696;28;20045;-68
2023/10/06 11:11:51;;;;;;;5.28;1.25;;;17.10;99.90;;;;;;5032943;28;20045;-68
2023/10/06 11:14:17;;;;;;;1.23;0.80;;;17.10;99.90;;;;;;5023111;28;20072;-69
2023/10/06 11:16:46;;;;;;;2.35;1.35;;;17.20;99.90;;;;;;5045219;28;20041;-70
2023/10/06 11:19:16;;;;;;;1.48;0.60;;;17.20;99.90;;;;;;5029480;28;20105;-69
2023/10/06 11:21:47;;;;;;;0.22;0.22;;;17.30;99.90;;;;;;5042999;28;20454;-69
2023/10/06 11:24:27;;;;;;;4.13;0.73;;;17.30;99.90;;;;;;5070184;28;20402;-67
2023/10/06 11:26:53;;;;;;;1.25;0.73;;;17.50;99.90;;;;;;5048490;28;20044;-69
2023/10/06 11:29:31;;;;;;;0.63;0.63;;;17.60;99.90;;;;;;5031799;28;20049;-68
2023/10/06 11:32:03;;;;;;;2.33;0.95;;;17.60;99.90;;;;;;5033075;28;20087;-66
2023/10/06 11:34:29;;;;;;;0.80;0.73;;;17.70;99.90;;;;;;5040073;28;20518;-68
2023/10/06 11:36:56;;;;;;;0.95;0.85;;;17.70;99.90;;;;;;5046702;28;20068;-68
2023/10/06 11:39:32;;;;;;;0.75;0.75;;;17.70;99.90;;;;;;5032631;28;20041;-69
2023/10/06 11:42:25;;;;;;;1.67;1.20;;;17.60;99.90;;;;;;5050798;28;20052;-71
2023/10/06 11:44:52;;;;;;;2.92;0.30;;;17.50;99.90;;;;;;5038875;28;20045;-68
2023/10/06 11:47:37;;;;;;;3.38;0.68;;;17.40;99.90;;;;;;5065993;28;20033;-69
2023/10/06 11:50:05;;;;;;;0.52;0.52;;;17.40;99.90;;;;;;5033456;28;20124;-68
2023/10/06 11:52:31;;;;;;;0.43;0.43;;;17.40;99.90;;;;;;5040016;28;20481;-71
2023/10/06 11:54:58;;;;;;;7.68;1.48;;;17.40;99.90;;;;;;5062195;28;20046;-69
2023/10/06 11:57:46;;;;;;;0.88;0.40;;;17.50;99.90;;;;;;5046652;28;20041;-67
2023/10/06 12:00:13;;;;;;;4.38;1.55;;;17.60;99.90;;;;;;5035122;28;20041;-67
2023/10/06 12:02:50;;;;;;;0.38;0.38;;;17.70;99.90;;;;;;5043537;28;20128;-69
2023/10/06 12:05:17;;;;;;;0.38;0.38;;;17.80;99.90;;;;;;5031868;28;20053;-67
2023/10/06 12:07:43;;;;;;;1.58;1.48;;;17.90;99.90;;;;;;5032229;28;20484;-69
2023/10/06 12:10:09;;;;;;;3.35;1.63;;;18.00;99.90;;;;;;5038001;28;20042;-71
2023/10/06 12:12:34;;;;;;;5.13;0.40;;;18.00;99.90;;;;;;5050637;28;20274;-71
2023/10/06 12:15:00;;;;;;;4.22;0.70;;;18.10;99.90;;;;;;5043459;28;20072;-69
2023/10/06 12:17:27;;;;;;;0.63;0.45;;;18.20;99.90;;;;;;5050079;28;20048;-68
2023/10/06 12:19:52;;;;;;;0.60;0.60;;;18.30;99.90;;;;;;5039733;28;20041;-68
2023/10/06 12:22:18;;;;;;;1.08;1.05;;;18.40;99.90;;;;;;5032287;28;20401;-70
2023/10/06 12:24:45;;;;;;;0.40;0.40;;;18.60;99.90;;;;;;5072705;28;20036;-68
2023/10/06 12:27:14;;;;;;;1.33;0.47;;;18.60;99.90;;;;;;5049869;28;20047;-69
2023/10/06 12:29:41;;;;;;;0.68;0.35;;;18.80;99.90;;;;;;5068491;28;20032;-69
2023/10/06 12:32:07;;;;;;;0.80;0.77;;;18.80;99.90;;;;;;5035670;28;20066;-70
2023/10/06 12:34:33;;;;;;;0.10;0.10;;;18.90;99.90;;;;;;5054510;28;20091;-68
2023/10/06 12:37:02;;;;;;;0.60;0.60;;;19.00;99.90;;;;;;5041048;28;20068;-68
2023/10/06 12:39:34;;;;;;;1.15;0.52;;;19.10;99.90;;;;;;5041091;28;20395;-69
2023/10/06 12:42:06;;;;;;;0.52;0.50;;;19.10;99.90;;;;;;5045495;28;20401;-70
2023/10/06 12:44:39;;;;;;;0.60;0.60;;;19.10;99.90;;;;;;5048234;28;20526;-69
2023/10/06 12:47:05;;;;;;;0.63;0.63;;;18.90;99.90;;;;;;5037200;28;20365;-69
2023/10/06 12:49:36;;;;;;;0.60;0.60;;;18.90;99.90;;;;;;5035697;28;20041;-68
2023/10/06 12:52:02;;;;;;;1.05;1.00;;;18.70;99.90;;;;;;5037308;28;20755;-68
2023/10/06 12:54:29;;;;;;;0.77;0.77;;;18.60;99.90;;;;;;5048436;28;20073;-68
2023/10/06 12:56:55;;;;;;;0.60;0.60;;;18.60;99.90;;;;;;5035002;28;20105;-70
2023/10/06 12:59:21;;;;;;;0.40;0.40;;;18.50;99.90;;;;;;5038757;28;20112;-69
2023/10/06 13:01:49;;;;;;;0.77;0.75;;;18.50;99.90;;;;;;5054114;28;20610;-69
2023/10/06 13:04:15;;;;;;;1.70;0.82;;;18.50;99.90;;;;;;5036175;28;20407;-68
2023/10/06 13:06:41;;;;;;;0.95;0.57;;;18.50;99.90;;;;;;5060313;28;20044;-69
2023/10/06 13:09:08;;;;;;;0.38;0.38;;;18.50;99.90;;;;;;5042961;28;20033;-69
2023/10/06 13:11:34;;;;;;;3.60;0.88;;;18.50;99.90;;;;;;5068373;28;20488;-71